Time;durP1;ratioP1;P1;durP2;ratioP2;P2;SDS_P1;SDS_P2;PMS_P1;PMS_P2;Temp;Humidity;BMP_temperature;BMP_pressure;BME280_temperature;BME280_humidity;BME280_pressure;Samples;Min_cycle;Max_cycle;Signal;HPM_P1;HPM_P2
2022/07/29 00:01:18;;;;;;;6.05;1.90;;;16.10;99.90;;;;;;5112832;28;20372;-72
2022/07/29 00:03:43;;;;;;;5.25;1.80;;;16.10;99.90;;;;;;5114108;28;20484;-72
2022/07/29 00:06:09;;;;;;;6.28;2.00;;;16.10;99.90;;;;;;5114151;28;20042;-71
2022/07/29 00:08:35;;;;;;;5.80;1.90;;;16.30;99.90;;;;;;5111078;28;20472;-72
2022/07/29 00:11:00;;;;;;;4.05;1.90;;;16.10;99.90;;;;;;5112874;28;20039;-72
2022/07/29 00:13:26;;;;;;;6.72;1.90;;;16.10;99.90;;;;;;5129719;27;20048;-72
2022/07/29 00:15:52;;;;;;;5.85;1.98;;;16.00;99.90;;;;;;5099493;28;20046;-72
2022/07/29 00:18:17;;;;;;;6.85;1.90;;;16.10;99.90;;;;;;5109535;28;20181;-71
2022/07/29 00:20:43;;;;;;;4.90;1.90;;;16.10;99.90;;;;;;5093717;28;20038;-72
2022/07/29 00:23:08;;;;;;;4.10;1.67;;;16.10;99.90;;;;;;5093649;28;20047;-73
2022/07/29 00:25:34;;;;;;;3.22;1.88;;;16.10;99.90;;;;;;5093539;28;20082;-72
2022/07/29 00:28:00;;;;;;;4.57;1.88;;;16.10;99.90;;;;;;5097861;28;20326;-71
2022/07/29 00:30:26;;;;;;;3.70;1.80;;;16.20;99.90;;;;;;5110781;28;20446;-72
2022/07/29 00:32:51;;;;;;;3.78;1.88;;;16.10;99.90;;;;;;5112155;28;20054;-72
2022/07/29 00:38:01;;;;;;;3.83;1.73;;;16.10;99.90;;;;;;5113860;28;20085;-72
2022/07/29 00:40:26;;;;;;;6.28;1.80;;;16.00;99.90;;;;;;5112149;28;20093;-71
2022/07/29 00:42:52;;;;;;;6.35;1.90;;;16.00;99.90;;;;;;5112817;28;20039;-71
2022/07/29 00:45:19;;;;;;;3.17;1.80;;;16.30;99.90;;;;;;5113654;28;20031;-72
2022/07/29 00:47:44;;;;;;;4.30;1.80;;;16.10;99.90;;;;;;5113695;28;20148;-72
2022/07/29 00:50:12;;;;;;;3.67;1.75;;;16.10;99.90;;;;;;5113326;28;20171;-72
2022/07/29 00:52:40;;;;;;;3.30;1.70;;;16.10;99.90;;;;;;5111661;28;20040;-72
2022/07/29 00:55:08;;;;;;;6.43;1.95;;;16.00;99.90;;;;;;5113159;28;20115;-72
2022/07/29 00:57:35;;;;;;;3.75;1.98;;;16.00;99.90;;;;;;5113406;28;20032;-72
2022/07/29 01:00:00;;;;;;;3.67;1.95;;;16.00;99.90;;;;;;5111439;28;20178;-72
2022/07/29 01:02:26;;;;;;;5.28;1.90;;;16.10;99.90;;;;;;5116955;28;20157;-71
2022/07/29 01:04:53;;;;;;;4.80;2.05;;;16.00;99.90;;;;;;5124484;28;20055;-72
2022/07/29 01:07:19;;;;;;;3.30;1.90;;;16.00;99.90;;;;;;5110900;28;20122;-71
2022/07/29 01:09:46;;;;;;;4.05;1.92;;;16.00;99.90;;;;;;5110760;28;20070;-71
2022/07/29 01:12:18;;;;;;;6.45;2.00;;;16.10;99.90;;;;;;5113215;28;20043;-71
2022/07/29 01:14:45;;;;;;;5.10;1.85;;;16.00;99.90;;;;;;5112329;28;20052;-72
2022/07/29 01:17:27;;;;;;;5.00;2.10;;;16.00;99.90;;;;;;5113314;28;20128;-72
2022/07/29 01:20:03;;;;;;;3.95;1.67;;;16.00;99.90;;;;;;5113096;28;20127;-72
2022/07/29 01:22:34;;;;;;;3.28;1.90;;;16.00;99.90;;;;;;5113324;28;20428;-72
2022/07/29 01:25:19;;;;;;;3.83;1.98;;;16.00;99.90;;;;;;5112072;28;20039;-72
2022/07/29 01:28:13;;;;;;;3.67;1.90;;;16.00;99.90;;;;;;5113457;28;20056;-72
2022/07/29 01:30:41;;;;;;;4.38;2.10;;;16.00;99.90;;;;;;5112865;28;20535;-72
2022/07/29 01:33:11;;;;;;;5.28;2.00;;;16.00;99.90;;;;;;5111863;28;20052;-72
2022/07/29 01:35:41;;;;;;;4.35;2.10;;;16.10;99.90;;;;;;5112921;28;20616;-72
2022/07/29 01:38:15;;;;;;;4.47;2.15;;;16.40;99.90;;;;;;5092903;28;20123;-72
2022/07/29 01:40:52;;;;;;;3.40;1.85;;;16.30;99.90;;;;;;5091866;28;20063;-71
2022/07/29 01:43:23;;;;;;;4.80;2.10;;;16.00;99.90;;;;;;5103589;28;20036;-71
2022/07/29 01:46:00;;;;;;;4.82;2.20;;;16.20;99.90;;;;;;5112779;28;20075;-71
2022/07/29 01:48:37;;;;;;;4.65;2.15;;;16.00;99.90;;;;;;5109985;28;20050;-72
2022/07/29 01:51:14;;;;;;;5.70;1.98;;;16.00;99.90;;;;;;5110098;28;20437;-72
2022/07/29 01:54:02;;;;;;;3.72;2.10;;;16.00;99.90;;;;;;5113129;28;20441;-72
2022/07/29 01:56:32;;;;;;;4.53;2.00;;;15.90;99.90;;;;;;5111829;28;20044;-72
2022/07/29 01:58:59;;;;;;;4.78;1.90;;;15.90;99.90;;;;;;5112626;28;20526;-71
2022/07/29 02:01:27;;;;;;;5.45;1.90;;;16.00;99.90;;;;;;5100317;28;20055;-71
2022/07/29 02:03:54;;;;;;;4.60;1.90;;;16.20;99.90;;;;;;5097580;28;20043;-72
2022/07/29 02:06:22;;;;;;;5.00;1.83;;;16.00;99.90;;;;;;5116704;27;20391;-72
2022/07/29 02:08:48;;;;;;;5.20;2.10;;;15.90;99.90;;;;;;5116730;28;20046;-72
2022/07/29 02:11:14;;;;;;;4.68;2.05;;;16.00;99.90;;;;;;5116191;28;20076;-72
2022/07/29 02:13:41;;;;;;;5.53;1.80;;;16.10;99.90;;;;;;5116485;28;20082;-72
2022/07/29 02:16:09;;;;;;;5.63;2.00;;;16.00;99.90;;;;;;5114829;28;20135;-72
2022/07/29 02:18:37;;;;;;;4.93;2.08;;;16.00;99.90;;;;;;5114236;28;20071;-72
2022/07/29 02:21:03;;;;;;;5.47;1.88;;;16.00;99.90;;;;;;5112676;28;20040;-72
2022/07/29 02:23:32;;;;;;;6.57;2.20;;;15.90;99.90;;;;;;5116181;28;20050;-71
2022/07/29 02:25:59;;;;;;;4.35;2.13;;;15.90;99.90;;;;;;5116298;28;20481;-72
2022/07/29 02:28:28;;;;;;;3.22;1.70;;;15.90;99.90;;;;;;5116228;28;20396;-72
2022/07/29 02:30:57;;;;;;;3.83;1.83;;;15.90;99.90;;;;;;5105798;28;20400;-72
2022/07/29 02:33:25;;;;;;;6.40;2.70;;;16.00;99.90;;;;;;5115706;28;20404;-71
2022/07/29 02:35:51;;;;;;;4.68;1.88;;;15.90;99.90;;;;;;5114810;28;20123;-72
2022/07/29 02:41:07;;;;;;;4.35;1.80;;;16.20;99.90;;;;;;5115853;28;20381;-72
2022/07/29 02:43:35;;;;;;;4.60;2.20;;;16.00;99.90;;;;;;5115599;28;20040;-72
2022/07/29 02:46:04;;;;;;;5.35;2.05;;;16.00;99.90;;;;;;5115586;28;20047;-72
2022/07/29 02:48:38;;;;;;;5.32;1.92;;;16.10;99.90;;;;;;5100522;28;20035;-72
2022/07/29 02:51:28;;;;;;;4.28;1.80;;;16.00;99.90;;;;;;5115738;27;20039;-72
2022/07/29 02:53:56;;;;;;;4.18;2.22;;;15.90;99.90;;;;;;5115482;28;20048;-72
2022/07/29 02:56:27;;;;;;;5.38;2.00;;;16.00;99.90;;;;;;5113985;28;20496;-72
2022/07/29 02:58:58;;;;;;;5.13;1.95;;;16.00;99.90;;;;;;5115312;28;20447;-72
2022/07/29 03:01:29;;;;;;;5.95;1.90;;;15.90;99.90;;;;;;5112447;28;20073;-72
2022/07/29 03:03:56;;;;;;;3.92;1.80;;;16.00;99.90;;;;;;5113857;28;20044;-72
2022/07/29 03:06:24;;;;;;;5.05;1.90;;;16.10;99.90;;;;;;5113007;28;20420;-72
2022/07/29 03:08:51;;;;;;;4.82;1.98;;;16.10;99.90;;;;;;5112655;28;20060;-72
2022/07/29 03:11:17;;;;;;;3.63;1.70;;;15.90;99.90;;;;;;5115174;28;20044;-72
2022/07/29 03:13:43;;;;;;;4.30;1.70;;;15.90;99.90;;;;;;5114582;28;20087;-72
2022/07/29 03:16:10;;;;;;;4.93;1.80;;;15.90;99.90;;;;;;5114402;28;20046;-72
2022/07/29 03:18:36;;;;;;;3.92;1.85;;;16.10;99.90;;;;;;5121481;27;20047;-72
2022/07/29 03:21:03;;;;;;;5.03;1.80;;;15.90;99.90;;;;;;5134068;27;20410;-71
2022/07/29 03:23:29;;;;;;;5.57;2.05;;;15.90;99.90;;;;;;5115011;28;20047;-72
2022/07/29 03:25:55;;;;;;;3.40;1.77;;;15.90;99.90;;;;;;5095974;28;20089;-71
2022/07/29 03:28:21;;;;;;;3.92;1.90;;;15.90;99.90;;;;;;5098342;28;20055;-72
2022/07/29 03:30:47;;;;;;;7.75;1.83;;;15.80;99.90;;;;;;5114958;28;20055;-72
2022/07/29 03:33:13;;;;;;;3.75;1.60;;;15.90;99.90;;;;;;5114611;28;20051;-72
2022/07/29 03:35:38;;;;;;;3.85;1.90;;;15.90;99.90;;;;;;5114667;28;20506;-71
2022/07/29 03:38:04;;;;;;;6.57;2.00;;;15.90;99.90;;;;;;5114805;28;20039;-72
2022/07/29 03:40:37;;;;;;;5.68;1.83;;;15.90;99.90;;;;;;5114790;28;20051;-71
2022/07/29 03:43:05;;;;;;;2.80;1.80;;;15.90;99.90;;;;;;5113423;28;20441;-72
2022/07/29 03:45:32;;;;;;;6.00;1.80;;;15.90;99.90;;;;;;5114565;28;20040;-72
2022/07/29 03:48:08;;;;;;;5.30;2.50;;;15.90;99.90;;;;;;5114775;28;20052;-71
2022/07/29 03:50:34;;;;;;;;;;;15.90;99.90;;;;;;5110358;28;20096;-71
2022/07/29 03:53:00;;;;;;;;;;;16.00;99.90;;;;;;5113913;28;20360;-72
2022/07/29 03:55:28;;;;;;;4.82;2.03;;;16.00;99.90;;;;;;5113384;28;19966;-72
2022/07/29 03:57:56;;;;;;;6.32;1.90;;;15.80;99.90;;;;;;5113346;28;20097;-72
2022/07/29 04:00:24;;;;;;;8.15;2.15;;;15.90;99.90;;;;;;5109740;28;20549;-72
2022/07/29 04:02:50;;;;;;;7.63;2.10;;;15.80;99.90;;;;;;5092936;28;20484;-72
2022/07/29 04:05:17;;;;;;;4.38;1.98;;;15.80;99.90;;;;;;5106139;28;20392;-72
2022/07/29 04:07:47;;;;;;;4.05;2.00;;;16.10;99.90;;;;;;5113115;28;20040;-72
2022/07/29 04:10:15;;;;;;;5.45;2.15;;;16.00;99.90;;;;;;5114263;28;20392;-72
2022/07/29 04:12:40;;;;;;;4.65;1.85;;;15.90;99.90;;;;;;5113768;28;20092;-72
2022/07/29 04:15:07;;;;;;;5.03;2.10;;;15.90;99.90;;;;;;5113974;28;20043;-72
2022/07/29 04:17:32;;;;;;;8.77;2.00;;;15.90;99.90;;;;;;5114010;28;20422;-72
2022/07/29 04:19:58;;;;;;;7.05;2.03;;;15.90;99.90;;;;;;5113875;28;20040;-71
2022/07/29 04:22:23;;;;;;;5.53;2.17;;;15.80;99.90;;;;;;5147046;27;20126;-71
2022/07/29 04:24:49;;;;;;;6.30;2.05;;;15.90;99.90;;;;;;5113993;28;20029;-71
2022/07/29 04:27:15;;;;;;;4.70;2.25;;;15.90;99.90;;;;;;5112695;28;20054;-71
2022/07/29 04:29:40;;;;;;;3.95;2.13;;;16.00;99.90;;;;;;5113470;28;20050;-72
2022/07/29 04:32:06;;;;;;;4.97;2.00;;;15.90;99.90;;;;;;5113597;28;20055;-71
2022/07/29 04:34:31;;;;;;;3.90;1.85;;;15.90;99.90;;;;;;5111898;28;20130;-72
2022/07/29 04:36:57;;;;;;;6.35;2.08;;;15.90;99.90;;;;;;5112058;28;20088;-72
2022/07/29 04:39:23;;;;;;;4.88;2.13;;;15.90;99.90;;;;;;5109846;28;20040;-72
2022/07/29 04:41:50;;;;;;;6.00;2.20;;;15.90;99.90;;;;;;5091921;28;20036;-72
2022/07/29 04:44:15;;;;;;;6.07;1.90;;;15.90;99.90;;;;;;5091607;28;20128;-71
2022/07/29 04:46:41;;;;;;;4.75;2.05;;;15.90;99.90;;;;;;5106986;28;20464;-71
2022/07/29 04:49:07;;;;;;;3.58;1.77;;;16.00;99.90;;;;;;5113611;28;20075;-71
2022/07/29 04:51:34;;;;;;;4.22;1.85;;;16.00;99.90;;;;;;5112591;28;20365;-71
2022/07/29 04:53:59;;;;;;;6.57;1.85;;;16.00;99.90;;;;;;5113570;28;20470;-71
2022/07/29 04:56:25;;;;;;;5.93;2.28;;;16.00;99.90;;;;;;5112232;28;20130;-71
2022/07/29 04:58:51;;;;;;;7.57;2.15;;;16.10;99.90;;;;;;5113622;28;20083;-72
2022/07/29 05:01:17;;;;;;;4.45;2.05;;;16.10;99.90;;;;;;5094349;28;20039;-71
2022/07/29 05:03:42;;;;;;;4.90;2.10;;;16.00;99.90;;;;;;5111936;28;20523;-71
2022/07/29 05:06:08;;;;;;;5.07;1.92;;;16.00;99.90;;;;;;5146264;27;20062;-71
2022/07/29 05:08:34;;;;;;;4.30;1.90;;;16.10;99.90;;;;;;5113146;28;20119;-71
2022/07/29 05:10:59;;;;;;;7.65;2.15;;;16.10;99.90;;;;;;5113105;28;20657;-72
2022/07/29 05:13:25;;;;;;;3.85;1.90;;;16.20;99.90;;;;;;5112966;28;20043;-71
2022/07/29 05:15:50;;;;;;;4.78;2.10;;;16.10;99.90;;;;;;5113169;28;20036;-71
2022/07/29 05:18:16;;;;;;;4.72;2.20;;;16.10;99.90;;;;;;5113240;28;20188;-71
2022/07/29 05:20:42;;;;;;;6.03;2.08;;;16.40;99.90;;;;;;5113041;28;20506;-71
2022/07/29 05:23:07;;;;;;;4.72;2.17;;;16.20;99.90;;;;;;5111555;28;20051;-71
2022/07/29 05:25:33;;;;;;;4.95;1.80;;;16.20;99.90;;;;;;5112673;28;20046;-71
2022/07/29 05:27:59;;;;;;;4.15;1.90;;;16.30;99.90;;;;;;5116057;28;20043;-71
2022/07/29 05:30:24;;;;;;;4.45;2.10;;;16.30;99.90;;;;;;5111800;28;20048;-71
2022/07/29 05:32:50;;;;;;;9.18;2.33;;;16.30;99.90;;;;;;5111704;28;20483;-72
2022/07/29 05:35:16;;;;;;;5.05;1.90;;;16.40;99.90;;;;;;5112744;28;20051;-71
2022/07/29 05:37:42;;;;;;;4.50;2.10;;;16.40;99.90;;;;;;5112871;28;20071;-71
2022/07/29 05:40:08;;;;;;;4.45;2.03;;;16.50;99.90;;;;;;5116793;28;20078;-71
2022/07/29 05:42:34;;;;;;;5.20;1.92;;;16.40;99.90;;;;;;5116838;28;20039;-71
2022/07/29 05:45:00;;;;;;;6.53;1.92;;;16.50;99.90;;;;;;5116098;28;20130;-71
2022/07/29 05:47:26;;;;;;;4.80;2.00;;;16.50;99.90;;;;;;5116384;28;20402;-71
2022/07/29 05:49:52;;;;;;;6.38;1.92;;;16.50;99.90;;;;;;5116766;28;20055;-71
2022/07/29 05:52:18;;;;;;;5.35;2.10;;;16.60;99.90;;;;;;5116494;28;20157;-71
2022/07/29 05:54:43;;;;;;;8.52;2.20;;;16.60;99.90;;;;;;5116657;28;20130;-71
2022/07/29 05:57:18;;;;;;;4.45;2.20;;;16.60;99.90;;;;;;5114763;28;20089;-71
2022/07/29 05:59:44;;;;;;;6.50;2.17;;;16.70;99.90;;;;;;5116535;28;20043;-71
2022/07/29 06:02:11;;;;;;;5.18;2.00;;;16.70;99.90;;;;;;5115422;28;20040;-71
2022/07/29 06:04:36;;;;;;;6.03;2.13;;;17.10;99.90;;;;;;5116330;28;20044;-71
2022/07/29 06:07:02;;;;;;;4.75;2.15;;;16.80;99.90;;;;;;5115788;28;20392;-71
2022/07/29 06:09:28;;;;;;;7.65;2.33;;;16.80;99.90;;;;;;5116012;28;20126;-71
2022/07/29 06:11:53;;;;;;;9.57;2.30;;;16.90;99.90;;;;;;5116433;28;20051;-71
2022/07/29 06:14:19;;;;;;;5.18;2.10;;;16.90;99.90;;;;;;5115941;28;20051;-71
2022/07/29 06:16:45;;;;;;;5.97;2.08;;;16.90;99.90;;;;;;5115034;28;20047;-71
2022/07/29 06:19:11;;;;;;;7.55;2.40;;;17.00;99.90;;;;;;5116275;28;20040;-71
2022/07/29 06:21:44;;;;;;;9.27;2.70;;;17.00;99.90;;;;;;5115931;28;20544;-71
2022/07/29 06:24:12;;;;;;;9.27;2.42;;;17.00;99.90;;;;;;5115543;28;20092;-71
2022/07/29 06:26:38;;;;;;;9.27;2.25;;;17.10;99.90;;;;;;5114847;28;20058;-71
2022/07/29 06:29:04;;;;;;;8.10;2.10;;;17.10;99.90;;;;;;5116162;28;20051;-71
2022/07/29 06:31:30;;;;;;;8.65;2.30;;;17.20;99.90;;;;;;5115770;28;20415;-71
2022/07/29 06:33:56;;;;;;;6.28;2.38;;;17.20;99.90;;;;;;5114676;28;20389;-71
2022/07/29 06:36:21;;;;;;;7.50;2.15;;;17.30;99.90;;;;;;5112093;28;20040;-71
2022/07/29 06:38:47;;;;;;;7.70;2.05;;;17.50;99.90;;;;;;5113834;28;20062;-71
2022/07/29 06:41:15;;;;;;;4.43;1.88;;;17.60;99.90;;;;;;5096123;28;20074;-71
2022/07/29 06:43:43;;;;;;;4.05;1.95;;;17.60;99.90;;;;;;5095494;28;20044;-71
2022/07/29 06:46:12;;;;;;;5.28;2.05;;;17.80;99.90;;;;;;5095254;28;20082;-71
2022/07/29 06:48:38;;;;;;;6.25;2.20;;;17.80;99.90;;;;;;5099424;28;20039;-71
2022/07/29 06:51:05;;;;;;;4.50;1.92;;;17.90;99.90;;;;;;5122318;27;20310;-71
2022/07/29 06:53:32;;;;;;;7.35;2.42;;;18.10;99.90;;;;;;5130559;27;20173;-71
2022/07/29 06:55:59;;;;;;;5.53;2.30;;;18.10;99.90;;;;;;5114527;28;20134;-71
2022/07/29 06:58:26;;;;;;;7.53;2.22;;;18.10;99.90;;;;;;5097275;28;20051;-71
2022/07/29 07:00:52;;;;;;;4.97;2.15;;;18.10;99.90;;;;;;5115520;28;20039;-71
2022/07/29 07:03:18;;;;;;;6.72;2.42;;;18.20;99.90;;;;;;5114508;28;20100;-71
2022/07/29 07:05:44;;;;;;;6.88;1.90;;;18.30;99.90;;;;;;5113556;28;20047;-71
2022/07/29 07:08:11;;;;;;;10.13;2.38;;;18.30;99.90;;;;;;5115530;28;20047;-71
2022/07/29 07:10:37;;;;;;;8.63;2.50;;;18.40;99.90;;;;;;5113901;28;20052;-72
2022/07/29 07:13:04;;;;;;;5.47;2.30;;;18.50;99.90;;;;;;5113795;28;20075;-71
2022/07/29 07:15:30;;;;;;;7.40;2.38;;;18.50;99.90;;;;;;5115045;28;20475;-71
2022/07/29 07:17:55;;;;;;;8.90;2.53;;;18.50;99.90;;;;;;5112753;28;20051;-71
2022/07/29 07:20:21;;;;;;;7.68;2.20;;;18.60;99.90;;;;;;5146356;27;20399;-69
2022/07/29 07:22:47;;;;;;;8.25;2.53;;;18.70;99.90;;;;;;5113152;28;20479;-70
2022/07/29 07:25:13;;;;;;;8.35;2.58;;;18.80;99.90;;;;;;5126235;27;20041;-70
2022/07/29 07:27:39;;;;;;;8.95;2.50;;;18.90;99.90;;;;;;5135424;27;20039;-70
2022/07/29 07:30:06;;;;;;;6.57;2.38;;;19.00;99.90;;;;;;5103843;27;20059;-70
2022/07/29 07:32:32;;;;;;;7.45;2.30;;;19.10;99.90;;;;;;5093971;28;20094;-70
2022/07/29 07:34:58;;;;;;;7.70;2.30;;;19.10;99.90;;;;;;5103542;28;20123;-70
2022/07/29 07:37:25;;;;;;;7.20;2.20;;;19.20;99.90;;;;;;5114546;28;20122;-70
2022/07/29 07:39:51;;;;;;;6.13;2.35;;;19.40;99.90;;;;;;5114661;28;20051;-69
2022/07/29 07:42:17;;;;;;;5.47;1.90;;;19.40;99.90;;;;;;5114907;28;20459;-70
2022/07/29 07:44:43;;;;;;;7.28;2.00;;;19.50;99.90;;;;;;5114343;28;20044;-71
2022/07/29 07:47:09;;;;;;;6.95;2.78;;;19.60;99.90;;;;;;5103546;28;20479;-71
2022/07/29 07:49:34;;;;;;;5.80;2.03;;;19.60;99.90;;;;;;5093886;28;20047;-71
2022/07/29 07:52:00;;;;;;;8.10;2.38;;;19.70;99.90;;;;;;5105170;28;20051;-71
2022/07/29 07:54:26;;;;;;;6.63;1.92;;;19.70;99.90;;;;;;5112655;28;20062;-71
2022/07/29 07:56:51;;;;;;;8.27;2.30;;;19.80;99.90;;;;;;5098852;28;20044;-71
2022/07/29 07:59:17;;;;;;;5.45;2.20;;;19.80;99.90;;;;;;5112356;28;20047;-70
2022/07/29 08:01:43;;;;;;;6.20;2.10;;;19.80;99.90;;;;;;5114080;28;20040;-71
2022/07/29 08:04:09;;;;;;;8.18;2.47;;;19.60;99.90;;;;;;5113113;28;20494;-72
2022/07/29 08:06:36;;;;;;;5.70;2.10;;;19.60;99.90;;;;;;5102619;28;20517;-70
2022/07/29 08:09:03;;;;;;;7.28;2.00;;;19.70;99.90;;;;;;5103111;28;20489;-70
2022/07/29 08:11:29;;;;;;;4.85;1.98;;;19.60;99.90;;;;;;5110708;28;20503;-70
2022/07/29 08:13:55;;;;;;;5.07;2.30;;;19.60;99.90;;;;;;5101394;28;20125;-70
2022/07/29 08:16:21;;;;;;;7.40;2.22;;;19.60;99.90;;;;;;5104036;28;20039;-70
2022/07/29 08:18:47;;;;;;;4.80;2.25;;;19.50;99.90;;;;;;5113620;28;20039;-70
2022/07/29 08:21:14;;;;;;;6.13;2.10;;;19.60;99.90;;;;;;5113679;28;20040;-70
2022/07/29 08:23:45;;;;;;;5.88;2.50;;;19.70;99.90;;;;;;5113500;28;20047;-70
2022/07/29 08:26:12;;;;;;;4.63;2.25;;;19.80;99.90;;;;;;5112160;28;20096;-70
2022/07/29 08:28:39;;;;;;;5.55;2.33;;;19.80;99.90;;;;;;5113832;28;20443;-71
2022/07/29 08:31:05;;;;;;;5.78;2.17;;;19.80;99.90;;;;;;5113279;28;20458;-70
2022/07/29 08:33:32;;;;;;;6.05;2.50;;;19.90;99.90;;;;;;5095150;28;20051;-70
2022/07/29 08:35:58;;;;;;;8.35;2.38;;;20.10;99.90;;;;;;5110999;28;20047;-70
2022/07/29 08:38:23;;;;;;;6.13;2.30;;;20.40;99.90;;;;;;5109320;28;20081;-71
2022/07/29 08:40:49;;;;;;;7.55;2.38;;;20.30;99.90;;;;;;5093084;28;20090;-70
2022/07/29 08:43:15;;;;;;;4.90;2.20;;;20.40;99.90;;;;;;5091572;28;20499;-70
2022/07/29 08:45:46;;;;;;;5.55;2.28;;;20.40;99.90;;;;;;5091604;28;20044;-70
2022/07/29 08:48:13;;;;;;;7.82;2.45;;;20.50;99.90;;;;;;5093094;28;20462;-70
2022/07/29 08:50:40;;;;;;;7.07;2.20;;;20.50;99.90;;;;;;5091690;28;20499;-70
2022/07/29 08:53:10;;;;;;;6.72;2.22;;;20.60;99.90;;;;;;5092771;28;20044;-70
2022/07/29 08:55:38;;;;;;;4.63;1.98;;;20.50;99.90;;;;;;5092728;28;20043;-70
2022/07/29 08:58:05;;;;;;;5.80;1.88;;;20.60;99.90;;;;;;5091536;28;20047;-70
2022/07/29 09:00:31;;;;;;;10.45;2.20;;;20.80;99.90;;;;;;5093610;28;20067;-70
2022/07/29 09:02:58;;;;;;;5.63;2.13;;;20.90;99.90;;;;;;5110768;28;20042;-70
2022/07/29 09:05:26;;;;;;;6.53;2.17;;;21.00;99.90;;;;;;5112256;28;20089;-69
2022/07/29 09:07:52;;;;;;;5.30;2.33;;;21.20;99.90;;;;;;5110971;28;20529;-70
2022/07/29 09:10:18;;;;;;;4.80;2.20;;;21.20;99.90;;;;;;5112692;28;20044;-70
2022/07/29 09:12:44;;;;;;;6.57;1.98;;;21.40;99.90;;;;;;5114341;28;20118;-70
2022/07/29 09:15:10;;;;;;;6.68;2.28;;;21.50;99.90;;;;;;5117041;28;20054;-70
2022/07/29 09:17:49;;;;;;;5.93;2.67;;;21.60;99.90;;;;;;5116874;28;20114;-70
2022/07/29 09:20:18;;;;;;;7.80;2.60;;;21.20;99.90;;;;;;5115105;28;20405;-70
2022/07/29 09:22:48;;;;;;;4.72;1.88;;;21.20;99.90;;;;;;5115861;28;20043;-70
2022/07/29 09:25:32;;;;;;;3.65;2.40;;;21.40;99.90;;;;;;5150105;27;20047;-69
2022/07/29 09:28:09;;;;;;;8.40;2.42;;;21.30;99.90;;;;;;5126629;27;20111;-69
2022/07/29 09:30:35;;;;;;;5.05;2.30;;;21.40;99.90;;;;;;5113375;28;20090;-69
2022/07/29 09:33:02;;;;;;;6.18;2.42;;;21.40;99.90;;;;;;5096253;28;20048;-69
2022/07/29 09:35:30;;;;;;;5.35;2.40;;;21.30;99.90;;;;;;5099279;28;20038;-69
2022/07/29 09:37:56;;;;;;;4.72;2.47;;;21.30;99.90;;;;;;5116299;28;20047;-70
2022/07/29 09:40:27;;;;;;;5.75;2.40;;;21.20;99.90;;;;;;5116575;28;20039;-69
2022/07/29 09:42:56;;;;;;;6.85;2.72;;;21.20;99.90;;;;;;5112177;28;20089;-70
2022/07/29 09:45:33;;;;;;;7.07;2.70;;;21.20;99.90;;;;;;5115851;28;20040;-69
2022/07/29 09:48:12;;;;;;;4.63;2.60;;;21.10;99.90;;;;;;5116718;28;20043;-69
2022/07/29 09:50:43;;;;;;;8.45;2.70;;;21.00;99.90;;;;;;5115005;28;20406;-70
2022/07/29 09:53:09;;;;;;;8.88;2.80;;;21.00;99.90;;;;;;5116500;28;20044;-70
2022/07/29 09:55:49;;;;;;;7.82;2.78;;;21.10;99.90;;;;;;5115720;28;20099;-70
2022/07/29 09:58:21;;;;;;;9.65;2.78;;;21.10;99.90;;;;;;5116426;28;20368;-69
2022/07/29 10:00:47;;;;;;;7.68;2.58;;;21.10;99.90;;;;;;5116150;28;20035;-70
2022/07/29 10:03:15;;;;;;;10.50;2.65;;;21.10;99.90;;;;;;5097805;28;20503;-70
2022/07/29 10:05:41;;;;;;;7.80;2.70;;;21.10;99.90;;;;;;5115877;28;20065;-70
2022/07/29 10:08:08;;;;;;;8.52;2.80;;;21.10;99.90;;;;;;5115835;28;20044;-70
2022/07/29 10:10:39;;;;;;;7.10;2.40;;;21.10;99.90;;;;;;5115703;28;20165;-70
2022/07/29 10:13:14;;;;;;;5.70;2.60;;;21.10;99.90;;;;;;5115777;28;20055;-70
2022/07/29 10:15:43;;;;;;;;;;;21.10;99.90;;;;;;5116113;28;20089;-70
2022/07/29 10:18:09;;;;;;;7.07;2.55;;;21.10;99.90;;;;;;5101238;28;20022;-70
2022/07/29 10:20:36;;;;;;;6.63;2.53;;;21.10;99.90;;;;;;5094826;28;20044;-70
2022/07/29 10:23:02;;;;;;;6.07;2.45;;;21.10;99.90;;;;;;5095071;28;20101;-70
2022/07/29 10:25:27;;;;;;;6.72;2.65;;;21.40;99.90;;;;;;5094934;28;20067;-70
2022/07/29 10:27:54;;;;;;;6.22;2.60;;;21.30;99.90;;;;;;5094110;28;20040;-70
2022/07/29 10:30:21;;;;;;;9.63;2.92;;;21.40;99.90;;;;;;5093800;28;20060;-69
2022/07/29 10:33:14;;;;;;;6.28;2.60;;;21.60;99.90;;;;;;5094898;28;20150;-69
2022/07/29 10:36:07;;;;;;;7.32;2.60;;;21.70;99.90;;;;;;5096959;28;20124;-69
2022/07/29 10:38:48;;;;;;;6.38;2.70;;;21.70;99.90;;;;;;5113480;28;20061;-69
2022/07/29 10:41:51;;;;;;;8.15;2.80;;;21.80;99.90;;;;;;5113036;28;20040;-69
2022/07/29 10:44:20;;;;;;;8.43;2.83;;;21.80;99.90;;;;;;5106529;28;20044;-70
2022/07/29 10:46:46;;;;;;;10.82;2.45;;;21.90;99.90;;;;;;5111789;28;20039;-69
2022/07/29 10:49:15;;;;;;;5.72;2.47;;;22.00;99.90;;;;;;5111715;28;20480;-70
2022/07/29 10:51:59;;;;;;;6.80;2.70;;;22.00;99.90;;;;;;5110989;28;20096;-69
2022/07/29 10:57:23;;;;;;;6.03;2.45;;;22.00;99.90;;;;;;5111198;28;20039;-69
2022/07/29 11:00:04;;;;;;;5.75;2.47;;;22.00;99.90;;;;;;5107501;28;20085;-69
2022/07/29 11:02:36;;;;;;;5.90;2.47;;;22.00;99.90;;;;;;5104662;28;20031;-70
2022/07/29 11:05:08;;;;;;;7.55;2.50;;;21.90;99.90;;;;;;5100861;28;20491;-69
2022/07/29 11:07:35;;;;;;;7.53;2.67;;;21.90;99.90;;;;;;5105485;28;20649;-69
2022/07/29 11:10:14;;;;;;;7.15;2.55;;;22.00;99.90;;;;;;5103109;28;20040;-70
2022/07/29 11:12:42;;;;;;;6.30;2.50;;;21.80;99.90;;;;;;5103490;28;20046;-69
2022/07/29 11:15:16;;;;;;;8.50;2.60;;;21.70;99.90;;;;;;5106823;28;20235;-70
2022/07/29 11:17:54;;;;;;;7.07;2.70;;;21.60;99.90;;;;;;5104471;28;20505;-70
2022/07/29 11:20:34;;;;;;;6.72;3.13;;;21.60;99.90;;;;;;5128113;27;20048;-70
2022/07/29 11:23:00;;;;;;;9.13;2.78;;;21.40;99.90;;;;;;5084736;28;20108;-69
2022/07/29 11:25:26;;;;;;;7.95;2.78;;;21.50;99.90;;;;;;5093937;28;20453;-70
2022/07/29 11:27:54;;;;;;;7.97;2.85;;;21.50;99.90;;;;;;5112674;28;20069;-70
2022/07/29 11:30:19;;;;;;;5.68;2.67;;;21.70;99.90;;;;;;5111928;28;20169;-72
2022/07/29 11:32:46;;;;;;;7.65;3.00;;;21.80;99.90;;;;;;5107937;28;20124;-72
2022/07/29 11:35:23;;;;;;;7.00;2.78;;;22.00;99.90;;;;;;5092956;28;20052;-72
2022/07/29 11:38:27;;;;;;;7.60;2.85;;;22.30;99.90;;;;;;5093617;28;20044;-73
2022/07/29 11:41:17;;;;;;;8.90;2.88;;;22.60;99.90;;;;;;5092128;28;20136;-73
2022/07/29 11:43:53;;;;;;;5.47;2.65;;;23.20;99.90;;;;;;5093480;28;20376;-73
2022/07/29 11:46:50;;;;;;;9.75;2.90;;;24.00;99.90;;;;;;5092529;28;20455;-73
2022/07/29 11:49:21;;;;;;;7.72;2.80;;;24.60;99.90;;;;;;5091323;28;20052;-73
2022/07/29 11:51:55;;;;;;;6.95;2.78;;;24.90;99.90;;;;;;5092402;28;20032;-73
2022/07/29 11:54:26;;;;;;;7.45;3.00;;;24.90;99.90;;;;;;5093156;28;20079;-73
2022/07/29 11:56:52;;;;;;;6.93;2.78;;;25.10;99.90;;;;;;5093616;28;20534;-73
2022/07/29 11:59:19;;;;;;;5.30;2.65;;;26.10;99.60;;;;;;5093629;28;20071;-73
2022/07/29 12:01:55;;;;;;;9.70;2.60;;;26.60;99.00;;;;;;5109099;28;20420;-73
2022/07/29 12:04:23;;;;;;;7.60;2.83;;;26.70;98.50;;;;;;5114068;28;20070;-73
2022/07/29 12:06:52;;;;;;;5.63;2.45;;;26.50;97.70;;;;;;5114124;28;20046;-73
2022/07/29 12:09:19;;;;;;;8.25;2.70;;;26.60;98.40;;;;;;5097302;28;20050;-73
2022/07/29 12:11:46;;;;;;;7.35;2.40;;;27.00;98.20;;;;;;5093302;28;20408;-74
2022/07/29 12:14:32;;;;;;;5.82;2.75;;;27.50;97.80;;;;;;5093413;28;20059;-73
2022/07/29 12:16:59;;;;;;;9.50;2.65;;;28.30;97.20;;;;;;5093240;28;20079;-73
2022/07/29 12:19:25;;;;;;;4.43;2.50;;;28.40;97.20;;;;;;5091878;28;20048;-73
2022/07/29 12:21:54;;;;;;;7.63;2.70;;;28.20;96.90;;;;;;5093234;28;20484;-73
2022/07/29 12:24:21;;;;;;;5.35;2.55;;;27.50;97.00;;;;;;5110516;27;20532;-73
2022/07/29 12:26:59;;;;;;;7.75;2.45;;;27.00;97.30;;;;;;5112276;28;20051;-73
2022/07/29 12:29:27;;;;;;;6.85;2.60;;;26.50;97.10;;;;;;5114695;27;20050;-73
2022/07/29 12:31:53;;;;;;;7.63;2.58;;;26.20;97.70;;;;;;5124151;27;20051;-73
2022/07/29 12:34:23;;;;;;;6.75;2.63;;;25.80;98.00;;;;;;5110455;28;20130;-73
2022/07/29 12:36:50;;;;;;;6.22;2.90;;;25.30;98.20;;;;;;5112461;28;20058;-73
2022/07/29 12:39:16;;;;;;;10.43;2.63;;;25.10;98.10;;;;;;5112158;28;20043;-73
2022/07/29 12:41:43;;;;;;;5.93;2.47;;;25.20;98.40;;;;;;5112896;28;20059;-73
2022/07/29 12:44:10;;;;;;;13.15;2.53;;;25.20;98.20;;;;;;5112626;28;20043;-73
2022/07/29 12:46:36;;;;;;;6.72;2.30;;;24.90;97.80;;;;;;5112252;28;20058;-73
2022/07/29 12:49:02;;;;;;;7.68;2.67;;;25.00;98.10;;;;;;5123690;27;20039;-74
2022/07/29 12:51:33;;;;;;;8.43;2.53;;;24.80;98.00;;;;;;5111435;28;20122;-73
2022/07/29 12:54:13;;;;;;;8.43;2.60;;;25.10;98.10;;;;;;5145916;27;20399;-73
2022/07/29 12:56:40;;;;;;;11.02;2.53;;;25.20;97.80;;;;;;5110646;28;20050;-73
2022/07/29 12:59:12;;;;;;;7.32;2.20;;;25.30;98.00;;;;;;5112291;28;20056;-73
2022/07/29 13:01:37;;;;;;;11.43;2.63;;;25.50;97.20;;;;;;5111922;28;20380;-73
2022/07/29 13:04:04;;;;;;;5.60;1.90;;;25.30;97.10;;;;;;5112919;28;20050;-73